sensor_id;sensor_type;location;lat;lon;timestamp;P1;durP1;ratioP1;P2;durP2;ratioP2
19679;SDS011;9989;48.962;9.182;2023-03-01T00:01:41;26.67;;;13.83;;
19679;SDS011;9989;48.962;9.182;2023-03-01T00:04:06;26.30;;;13.67;;
19679;SDS011;9989;48.962;9.182;2023-03-01T00:06:32;26.50;;;13.63;;
19679;SDS011;9989;48.962;9.182;2023-03-01T00:08:58;24.30;;;13.60;;
19679;SDS011;9989;48.962;9.182;2023-03-01T00:11:27;27.17;;;15.13;;
19679;SDS011;9989;48.962;9.182;2023-03-01T00:13:55;23.40;;;13.30;;
19679;SDS011;9989;48.962;9.182;2023-03-01T00:16:26;26.00;;;14.33;;
19679;SDS011;9989;48.962;9.182;2023-03-01T00:18:54;24.27;;;12.93;;
19679;SDS011;9989;48.962;9.182;2023-03-01T00:21:20;29.13;;;15.13;;
19679;SDS011;9989;48.962;9.182;2023-03-01T00:23:47;26.23;;;14.33;;
19679;SDS011;9989;48.962;9.182;2023-03-01T00:26:14;26.97;;;13.33;;
19679;SDS011;9989;48.962;9.182;2023-03-01T00:28:40;26.73;;;14.33;;
19679;SDS011;9989;48.962;9.182;2023-03-01T00:31:15;25.50;;;14.27;;
19679;SDS011;9989;48.962;9.182;2023-03-01T00:33:44;27.27;;;15.13;;
19679;SDS011;9989;48.962;9.182;2023-03-01T00:36:10;25.97;;;13.43;;
19679;SDS011;9989;48.962;9.182;2023-03-01T00:38:37;26.33;;;14.57;;
19679;SDS011;9989;48.962;9.182;2023-03-01T00:41:10;26.80;;;15.63;;
19679;SDS011;9989;48.962;9.182;2023-03-01T00:43:38;29.73;;;16.20;;
19679;SDS011;9989;48.962;9.182;2023-03-01T00:46:04;32.97;;;16.97;;
19679;SDS011;9989;48.962;9.182;2023-03-01T00:48:32;35.33;;;15.67;;
19679;SDS011;9989;48.962;9.182;2023-03-01T00:51:12;28.07;;;14.90;;
19679;SDS011;9989;48.962;9.182;2023-03-01T00:53:38;28.90;;;14.43;;
19679;SDS011;9989;48.962;9.182;2023-03-01T00:56:04;26.57;;;14.07;;
19679;SDS011;9989;48.962;9.182;2023-03-01T00:58:31;27.03;;;14.93;;
19679;SDS011;9989;48.962;9.182;2023-03-01T01:00:57;27.37;;;15.67;;
19679;SDS011;9989;48.962;9.182;2023-03-01T01:03:24;28.37;;;15.37;;
19679;SDS011;9989;48.962;9.182;2023-03-01T01:05:50;33.10;;;16.60;;
19679;SDS011;9989;48.962;9.182;2023-03-01T01:08:17;31.60;;;16.57;;
19679;SDS011;9989;48.962;9.182;2023-03-01T01:10:43;33.07;;;16.23;;
19679;SDS011;9989;48.962;9.182;2023-03-01T01:13:10;28.90;;;15.70;;
19679;SDS011;9989;48.962;9.182;2023-03-01T01:15:36;31.20;;;16.47;;
19679;SDS011;9989;48.962;9.182;2023-03-01T01:18:01;30.70;;;15.97;;
19679;SDS011;9989;48.962;9.182;2023-03-01T01:20:27;30.43;;;16.60;;
19679;SDS011;9989;48.962;9.182;2023-03-01T01:22:53;32.93;;;16.37;;
19679;SDS011;9989;48.962;9.182;2023-03-01T01:25:19;30.47;;;16.23;;
19679;SDS011;9989;48.962;9.182;2023-03-01T01:27:44;29.43;;;15.37;;
19679;SDS011;9989;48.962;9.182;2023-03-01T01:30:10;32.87;;;16.97;;
19679;SDS011;9989;48.962;9.182;2023-03-01T01:32:36;27.63;;;16.40;;
19679;SDS011;9989;48.962;9.182;2023-03-01T01:35:02;28.43;;;16.50;;
19679;SDS011;9989;48.962;9.182;2023-03-01T01:37:28;28.57;;;15.80;;
19679;SDS011;9989;48.962;9.182;2023-03-01T01:39:58;30.47;;;16.50;;
19679;SDS011;9989;48.962;9.182;2023-03-01T01:42:25;30.37;;;16.57;;
19679;SDS011;9989;48.962;9.182;2023-03-01T01:48:01;32.80;;;17.10;;
19679;SDS011;9989;48.962;9.182;2023-03-01T01:50:30;28.77;;;15.80;;
19679;SDS011;9989;48.962;9.182;2023-03-01T01:53:03;32.27;;;16.30;;
19679;SDS011;9989;48.962;9.182;2023-03-01T01:55:43;28.33;;;16.27;;
19679;SDS011;9989;48.962;9.182;2023-03-01T01:58:13;28.97;;;16.03;;
19679;SDS011;9989;48.962;9.182;2023-03-01T02:00:42;29.00;;;15.90;;
19679;SDS011;9989;48.962;9.182;2023-03-01T02:03:13;31.27;;;15.97;;
19679;SDS011;9989;48.962;9.182;2023-03-01T02:08:43;28.80;;;15.77;;
19679;SDS011;9989;48.962;9.182;2023-03-01T02:11:10;28.83;;;15.63;;
19679;SDS011;9989;48.962;9.182;2023-03-01T02:13:39;34.43;;;17.17;;
19679;SDS011;9989;48.962;9.182;2023-03-01T02:16:09;29.47;;;16.43;;
19679;SDS011;9989;48.962;9.182;2023-03-01T02:18:38;29.77;;;17.30;;
19679;SDS011;9989;48.962;9.182;2023-03-01T02:21:11;33.37;;;17.60;;
19679;SDS011;9989;48.962;9.182;2023-03-01T02:23:55;33.43;;;18.10;;
19679;SDS011;9989;48.962;9.182;2023-03-01T02:29:22;31.40;;;17.67;;
19679;SDS011;9989;48.962;9.182;2023-03-01T02:31:49;32.00;;;16.67;;
19679;SDS011;9989;48.962;9.182;2023-03-01T02:34:20;33.13;;;16.60;;
19679;SDS011;9989;48.962;9.182;2023-03-01T02:39:34;28.90;;;16.23;;
19679;SDS011;9989;48.962;9.182;2023-03-01T02:42:07;29.17;;;16.57;;
19679;SDS011;9989;48.962;9.182;2023-03-01T02:44:37;31.23;;;16.77;;
19679;SDS011;9989;48.962;9.182;2023-03-01T02:47:03;29.27;;;16.13;;
19679;SDS011;9989;48.962;9.182;2023-03-01T02:49:32;28.10;;;16.00;;
19679;SDS011;9989;48.962;9.182;2023-03-01T02:57:34;30.03;;;15.70;;
19679;SDS011;9989;48.962;9.182;2023-03-01T03:00:03;26.67;;;16.13;;
19679;SDS011;9989;48.962;9.182;2023-03-01T03:02:34;29.63;;;16.23;;
19679;SDS011;9989;48.962;9.182;2023-03-01T03:07:35;33.23;;;16.87;;
19679;SDS011;9989;48.962;9.182;2023-03-01T03:10:02;29.93;;;15.70;;
19679;SDS011;9989;48.962;9.182;2023-03-01T03:12:30;27.73;;;16.07;;
19679;SDS011;9989;48.962;9.182;2023-03-01T03:14:56;28.83;;;15.87;;
19679;SDS011;9989;48.962;9.182;2023-03-01T03:17:21;27.40;;;15.07;;
19679;SDS011;9989;48.962;9.182;2023-03-01T03:19:47;29.07;;;16.00;;
19679;SDS011;9989;48.962;9.182;2023-03-01T03:22:13;28.03;;;16.73;;
19679;SDS011;9989;48.962;9.182;2023-03-01T03:24:38;29.97;;;16.40;;
19679;SDS011;9989;48.962;9.182;2023-03-01T03:27:04;31.43;;;17.63;;
19679;SDS011;9989;48.962;9.182;2023-03-01T03:29:30;28.83;;;16.53;;
19679;SDS011;9989;48.962;9.182;2023-03-01T03:31:56;28.03;;;15.93;;
19679;SDS011;9989;48.962;9.182;2023-03-01T03:34:22;27.87;;;15.97;;
19679;SDS011;9989;48.962;9.182;2023-03-01T03:36:48;26.70;;;15.60;;
19679;SDS011;9989;48.962;9.182;2023-03-01T03:39:24;29.00;;;15.67;;
19679;SDS011;9989;48.962;9.182;2023-03-01T03:41:52;28.57;;;16.17;;
19679;SDS011;9989;48.962;9.182;2023-03-01T03:44:18;30.97;;;16.13;;
19679;SDS011;9989;48.962;9.182;2023-03-01T03:46:44;29.80;;;16.33;;
19679;SDS011;9989;48.962;9.182;2023-03-01T03:49:09;29.80;;;16.23;;
19679;SDS011;9989;48.962;9.182;2023-03-01T03:51:35;28.70;;;16.90;;
19679;SDS011;9989;48.962;9.182;2023-03-01T03:54:00;26.87;;;14.83;;
19679;SDS011;9989;48.962;9.182;2023-03-01T03:56:26;31.53;;;15.37;;
19679;SDS011;9989;48.962;9.182;2023-03-01T03:58:52;27.60;;;15.70;;
19679;SDS011;9989;48.962;9.182;2023-03-01T04:01:18;28.87;;;15.67;;
19679;SDS011;9989;48.962;9.182;2023-03-01T04:03:43;31.70;;;16.00;;
19679;SDS011;9989;48.962;9.182;2023-03-01T04:06:11;27.90;;;15.20;;
19679;SDS011;9989;48.962;9.182;2023-03-01T04:08:38;27.23;;;15.57;;
19679;SDS011;9989;48.962;9.182;2023-03-01T04:11:04;30.87;;;16.60;;
19679;SDS011;9989;48.962;9.182;2023-03-01T04:13:52;30.40;;;16.30;;
19679;SDS011;9989;48.962;9.182;2023-03-01T04:16:20;26.87;;;14.60;;
19679;SDS011;9989;48.962;9.182;2023-03-01T04:18:45;26.27;;;15.27;;
19679;SDS011;9989;48.962;9.182;2023-03-01T04:21:11;30.17;;;15.87;;
19679;SDS011;9989;48.962;9.182;2023-03-01T04:23:37;27.93;;;16.07;;
19679;SDS011;9989;48.962;9.182;2023-03-01T04:26:04;28.70;;;16.03;;
19679;SDS011;9989;48.962;9.182;2023-03-01T04:31:02;31.30;;;15.83;;
19679;SDS011;9989;48.962;9.182;2023-03-01T04:33:42;32.90;;;17.67;;
19679;SDS011;9989;48.962;9.182;2023-03-01T04:36:09;28.80;;;15.77;;
19679;SDS011;9989;48.962;9.182;2023-03-01T04:38:38;30.00;;;16.50;;
19679;SDS011;9989;48.962;9.182;2023-03-01T04:41:06;28.23;;;15.63;;
19679;SDS011;9989;48.962;9.182;2023-03-01T04:43:32;29.47;;;16.37;;
19679;SDS011;9989;48.962;9.182;2023-03-01T04:46:03;27.30;;;15.17;;
19679;SDS011;9989;48.962;9.182;2023-03-01T04:48:31;26.57;;;15.07;;
19679;SDS011;9989;48.962;9.182;2023-03-01T04:50:57;28.93;;;15.47;;
19679;SDS011;9989;48.962;9.182;2023-03-01T04:53:24;26.87;;;14.77;;
19679;SDS011;9989;48.962;9.182;2023-03-01T04:55:49;29.10;;;15.40;;
19679;SDS011;9989;48.962;9.182;2023-03-01T04:58:15;27.10;;;16.10;;
19679;SDS011;9989;48.962;9.182;2023-03-01T05:00:41;29.83;;;17.67;;
19679;SDS011;9989;48.962;9.182;2023-03-01T05:03:07;33.27;;;17.70;;
19679;SDS011;9989;48.962;9.182;2023-03-01T05:05:35;32.60;;;18.50;;
19679;SDS011;9989;48.962;9.182;2023-03-01T05:08:03;29.83;;;17.20;;
19679;SDS011;9989;48.962;9.182;2023-03-01T05:10:31;32.27;;;17.40;;
19679;SDS011;9989;48.962;9.182;2023-03-01T05:12:58;32.33;;;16.87;;
19679;SDS011;9989;48.962;9.182;2023-03-01T05:15:25;33.07;;;17.60;;
19679;SDS011;9989;48.962;9.182;2023-03-01T05:17:52;35.30;;;17.70;;
19679;SDS011;9989;48.962;9.182;2023-03-01T05:20:19;31.17;;;17.47;;
19679;SDS011;9989;48.962;9.182;2023-03-01T05:22:47;33.97;;;18.43;;
19679;SDS011;9989;48.962;9.182;2023-03-01T05:25:13;31.07;;;17.97;;
19679;SDS011;9989;48.962;9.182;2023-03-01T05:27:39;35.10;;;19.20;;
19679;SDS011;9989;48.962;9.182;2023-03-01T05:30:05;35.73;;;20.07;;
19679;SDS011;9989;48.962;9.182;2023-03-01T05:32:38;42.70;;;21.47;;
19679;SDS011;9989;48.962;9.182;2023-03-01T05:35:08;36.83;;;20.17;;
19679;SDS011;9989;48.962;9.182;2023-03-01T05:37:38;37.30;;;21.17;;
19679;SDS011;9989;48.962;9.182;2023-03-01T05:40:07;40.20;;;22.37;;
19679;SDS011;9989;48.962;9.182;2023-03-01T05:42:43;40.03;;;21.53;;
19679;SDS011;9989;48.962;9.182;2023-03-01T05:45:10;37.13;;;19.80;;
19679;SDS011;9989;48.962;9.182;2023-03-01T05:47:37;33.80;;;19.50;;
19679;SDS011;9989;48.962;9.182;2023-03-01T05:50:17;33.17;;;17.47;;
19679;SDS011;9989;48.962;9.182;2023-03-01T05:52:49;33.50;;;16.97;;
19679;SDS011;9989;48.962;9.182;2023-03-01T05:55:30;36.50;;;17.73;;
19679;SDS011;9989;48.962;9.182;2023-03-01T05:58:03;33.60;;;18.20;;
19679;SDS011;9989;48.962;9.182;2023-03-01T06:00:31;35.70;;;18.37;;
19679;SDS011;9989;48.962;9.182;2023-03-01T06:02:57;33.87;;;18.60;;
19679;SDS011;9989;48.962;9.182;2023-03-01T06:05:24;34.87;;;18.73;;
19679;SDS011;9989;48.962;9.182;2023-03-01T06:07:50;33.73;;;18.73;;
19679;SDS011;9989;48.962;9.182;2023-03-01T06:10:18;36.90;;;20.67;;
19679;SDS011;9989;48.962;9.182;2023-03-01T06:12:45;34.03;;;18.57;;
19679;SDS011;9989;48.962;9.182;2023-03-01T06:15:12;34.37;;;18.57;;
19679;SDS011;9989;48.962;9.182;2023-03-01T06:17:39;35.77;;;20.00;;
19679;SDS011;9989;48.962;9.182;2023-03-01T06:20:08;36.63;;;20.07;;
19679;SDS011;9989;48.962;9.182;2023-03-01T06:22:38;35.93;;;19.60;;
19679;SDS011;9989;48.962;9.182;2023-03-01T06:25:04;38.47;;;19.20;;
19679;SDS011;9989;48.962;9.182;2023-03-01T06:27:30;37.23;;;19.37;;
19679;SDS011;9989;48.962;9.182;2023-03-01T06:29:56;33.17;;;18.50;;
19679;SDS011;9989;48.962;9.182;2023-03-01T06:32:22;36.60;;;19.27;;
19679;SDS011;9989;48.962;9.182;2023-03-01T06:34:47;51.73;;;20.53;;
19679;SDS011;9989;48.962;9.182;2023-03-01T06:37:13;36.53;;;20.90;;
19679;SDS011;9989;48.962;9.182;2023-03-01T06:39:38;37.37;;;19.23;;
19679;SDS011;9989;48.962;9.182;2023-03-01T06:42:04;35.33;;;18.53;;
19679;SDS011;9989;48.962;9.182;2023-03-01T06:44:29;36.70;;;19.03;;
19679;SDS011;9989;48.962;9.182;2023-03-01T06:46:55;32.10;;;17.83;;
19679;SDS011;9989;48.962;9.182;2023-03-01T06:49:20;36.80;;;19.97;;
19679;SDS011;9989;48.962;9.182;2023-03-01T06:51:46;35.17;;;18.80;;
19679;SDS011;9989;48.962;9.182;2023-03-01T06:54:12;35.07;;;18.90;;
19679;SDS011;9989;48.962;9.182;2023-03-01T06:56:38;37.67;;;19.70;;
19679;SDS011;9989;48.962;9.182;2023-03-01T06:59:04;37.60;;;18.33;;
19679;SDS011;9989;48.962;9.182;2023-03-01T07:01:30;38.03;;;19.13;;
19679;SDS011;9989;48.962;9.182;2023-03-01T07:03:56;35.83;;;19.83;;
19679;SDS011;9989;48.962;9.182;2023-03-01T07:06:22;39.23;;;20.33;;
19679;SDS011;9989;48.962;9.182;2023-03-01T07:08:48;32.07;;;17.90;;
19679;SDS011;9989;48.962;9.182;2023-03-01T07:11:14;36.10;;;20.00;;
19679;SDS011;9989;48.962;9.182;2023-03-01T07:13:40;33.70;;;18.57;;
19679;SDS011;9989;48.962;9.182;2023-03-01T07:16:06;37.07;;;20.17;;
19679;SDS011;9989;48.962;9.182;2023-03-01T07:18:32;38.97;;;21.00;;
19679;SDS011;9989;48.962;9.182;2023-03-01T07:20:57;34.60;;;20.00;;
19679;SDS011;9989;48.962;9.182;2023-03-01T07:23:23;39.50;;;20.63;;
19679;SDS011;9989;48.962;9.182;2023-03-01T07:25:54;34.53;;;19.03;;
19679;SDS011;9989;48.962;9.182;2023-03-01T07:28:22;35.63;;;19.30;;
19679;SDS011;9989;48.962;9.182;2023-03-01T07:30:49;33.17;;;17.23;;
19679;SDS011;9989;48.962;9.182;2023-03-01T07:33:14;40.20;;;21.20;;
19679;SDS011;9989;48.962;9.182;2023-03-01T07:35:40;38.37;;;20.90;;
19679;SDS011;9989;48.962;9.182;2023-03-01T07:38:06;35.67;;;18.77;;
19679;SDS011;9989;48.962;9.182;2023-03-01T07:40:31;39.50;;;20.07;;
19679;SDS011;9989;48.962;9.182;2023-03-01T07:42:57;38.23;;;18.50;;
19679;SDS011;9989;48.962;9.182;2023-03-01T07:45:24;32.43;;;18.63;;
19679;SDS011;9989;48.962;9.182;2023-03-01T07:47:50;37.23;;;20.10;;
19679;SDS011;9989;48.962;9.182;2023-03-01T07:50:19;36.80;;;20.47;;
19679;SDS011;9989;48.962;9.182;2023-03-01T07:52:49;37.17;;;19.03;;
19679;SDS011;9989;48.962;9.182;2023-03-01T07:55:15;36.50;;;18.87;;
19679;SDS011;9989;48.962;9.182;2023-03-01T07:57:42;36.40;;;19.33;;
19679;SDS011;9989;48.962;9.182;2023-03-01T08:00:09;41.83;;;20.07;;
19679;SDS011;9989;48.962;9.182;2023-03-01T08:02:36;37.03;;;21.17;;
19679;SDS011;9989;48.962;9.182;2023-03-01T08:05:06;36.50;;;19.83;;
19679;SDS011;9989;48.962;9.182;2023-03-01T08:07:33;37.13;;;19.60;;
19679;SDS011;9989;48.962;9.182;2023-03-01T08:09:59;38.53;;;21.53;;
19679;SDS011;9989;48.962;9.182;2023-03-01T08:12:24;36.67;;;19.37;;
19679;SDS011;9989;48.962;9.182;2023-03-01T08:14:52;32.67;;;18.53;;
19679;SDS011;9989;48.962;9.182;2023-03-01T08:17:18;44.97;;;18.60;;
19679;SDS011;9989;48.962;9.182;2023-03-01T08:19:44;33.60;;;18.60;;
19679;SDS011;9989;48.962;9.182;2023-03-01T08:22:10;29.77;;;17.83;;
19679;SDS011;9989;48.962;9.182;2023-03-01T08:24:35;31.70;;;18.07;;
19679;SDS011;9989;48.962;9.182;2023-03-01T08:27:01;30.73;;;17.53;;
19679;SDS011;9989;48.962;9.182;2023-03-01T08:29:28;30.93;;;17.40;;
19679;SDS011;9989;48.962;9.182;2023-03-01T08:31:55;32.67;;;16.97;;
19679;SDS011;9989;48.962;9.182;2023-03-01T08:34:21;30.07;;;17.43;;
19679;SDS011;9989;48.962;9.182;2023-03-01T08:36:47;28.27;;;16.10;;
19679;SDS011;9989;48.962;9.182;2023-03-01T08:39:14;26.87;;;17.50;;
19679;SDS011;9989;48.962;9.182;2023-03-01T08:41:41;30.20;;;17.57;;
19679;SDS011;9989;48.962;9.182;2023-03-01T08:44:08;29.43;;;18.40;;
19679;SDS011;9989;48.962;9.182;2023-03-01T08:46:36;28.67;;;17.17;;
19679;SDS011;9989;48.962;9.182;2023-03-01T08:49:04;30.23;;;17.57;;
19679;SDS011;9989;48.962;9.182;2023-03-01T08:51:35;27.67;;;16.73;;
19679;SDS011;9989;48.962;9.182;2023-03-01T08:54:02;25.30;;;16.43;;
19679;SDS011;9989;48.962;9.182;2023-03-01T08:56:32;28.03;;;19.17;;
19679;SDS011;9989;48.962;9.182;2023-03-01T08:58:58;29.53;;;18.27;;
19679;SDS011;9989;48.962;9.182;2023-03-01T09:01:24;25.53;;;17.77;;
19679;SDS011;9989;48.962;9.182;2023-03-01T09:03:50;25.30;;;17.13;;
19679;SDS011;9989;48.962;9.182;2023-03-01T09:06:15;27.10;;;18.40;;
19679;SDS011;9989;48.962;9.182;2023-03-01T09:08:42;25.77;;;16.50;;
19679;SDS011;9989;48.962;9.182;2023-03-01T09:11:10;26.43;;;18.73;;
19679;SDS011;9989;48.962;9.182;2023-03-01T09:13:37;26.43;;;16.80;;
19679;SDS011;9989;48.962;9.182;2023-03-01T09:16:04;24.33;;;17.30;;
19679;SDS011;9989;48.962;9.182;2023-03-01T09:18:31;26.37;;;17.03;;
19679;SDS011;9989;48.962;9.182;2023-03-01T09:21:16;25.37;;;17.60;;
19679;SDS011;9989;48.962;9.182;2023-03-01T09:23:43;23.47;;;17.03;;
19679;SDS011;9989;48.962;9.182;2023-03-01T09:26:12;26.70;;;18.17;;
19679;SDS011;9989;48.962;9.182;2023-03-01T09:28:44;24.30;;;17.63;;
19679;SDS011;9989;48.962;9.182;2023-03-01T09:31:10;27.77;;;18.23;;
19679;SDS011;9989;48.962;9.182;2023-03-01T09:33:40;33.83;;;18.80;;
19679;SDS011;9989;48.962;9.182;2023-03-01T09:36:09;28.40;;;18.17;;
19679;SDS011;9989;48.962;9.182;2023-03-01T09:38:36;26.30;;;16.77;;
19679;SDS011;9989;48.962;9.182;2023-03-01T09:41:08;25.60;;;18.20;;
19679;SDS011;9989;48.962;9.182;2023-03-01T09:46:13;24.37;;;16.93;;
19679;SDS011;9989;48.962;9.182;2023-03-01T09:48:46;24.23;;;17.73;;
19679;SDS011;9989;48.962;9.182;2023-03-01T09:51:22;24.23;;;17.17;;
19679;SDS011;9989;48.962;9.182;2023-03-01T09:53:57;22.83;;;17.20;;
19679;SDS011;9989;48.962;9.182;2023-03-01T09:59:35;23.73;;;16.90;;
19679;SDS011;9989;48.962;9.182;2023-03-01T10:10:35;23.00;;;16.33;;
19679;SDS011;9989;48.962;9.182;2023-03-01T10:13:04;26.07;;;19.07;;
19679;SDS011;9989;48.962;9.182;2023-03-01T10:15:57;24.07;;;17.47;;
19679;SDS011;9989;48.962;9.182;2023-03-01T10:18:28;23.47;;;16.03;;
19679;SDS011;9989;48.962;9.182;2023-03-01T10:20:59;23.33;;;16.27;;
19679;SDS011;9989;48.962;9.182;2023-03-01T10:23:26;22.13;;;16.30;;
19679;SDS011;9989;48.962;9.182;2023-03-01T10:31:31;25.47;;;16.50;;
19679;SDS011;9989;48.962;9.182;2023-03-01T10:36:44;24.27;;;16.70;;
19679;SDS011;9989;48.962;9.182;2023-03-01T10:41:57;22.90;;;16.87;;
19679;SDS011;9989;48.962;9.182;2023-03-01T10:44:35;23.90;;;16.07;;
19679;SDS011;9989;48.962;9.182;2023-03-01T10:47:13;24.43;;;15.50;;
19679;SDS011;9989;48.962;9.182;2023-03-01T10:49:51;22.43;;;15.93;;
19679;SDS011;9989;48.962;9.182;2023-03-01T10:52:19;22.23;;;15.60;;
19679;SDS011;9989;48.962;9.182;2023-03-01T10:57:38;26.50;;;19.57;;
19679;SDS011;9989;48.962;9.182;2023-03-01T11:00:18;23.63;;;17.40;;
19679;SDS011;9989;48.962;9.182;2023-03-01T11:03:13;23.87;;;16.07;;
19679;SDS011;9989;48.962;9.182;2023-03-01T11:08:29;24.27;;;16.43;;
19679;SDS011;9989;48.962;9.182;2023-03-01T11:14:00;22.50;;;15.47;;
19679;SDS011;9989;48.962;9.182;2023-03-01T11:16:33;21.03;;;15.50;;
19679;SDS011;9989;48.962;9.182;2023-03-01T11:21:36;20.17;;;14.97;;
19679;SDS011;9989;48.962;9.182;2023-03-01T11:24:13;20.37;;;14.83;;
19679;SDS011;9989;48.962;9.182;2023-03-01T11:26:42;18.10;;;13.63;;
19679;SDS011;9989;48.962;9.182;2023-03-01T11:29:21;21.37;;;15.90;;
19679;SDS011;9989;48.962;9.182;2023-03-01T11:32:07;21.87;;;15.57;;
19679;SDS011;9989;48.962;9.182;2023-03-01T11:34:43;21.70;;;15.60;;
19679;SDS011;9989;48.962;9.182;2023-03-01T11:37:16;22.30;;;16.73;;
19679;SDS011;9989;48.962;9.182;2023-03-01T11:40:17;22.90;;;16.23;;
19679;SDS011;9989;48.962;9.182;2023-03-01T11:43:04;20.40;;;14.37;;
19679;SDS011;9989;48.962;9.182;2023-03-01T11:45:41;19.93;;;15.07;;
19679;SDS011;9989;48.962;9.182;2023-03-01T11:48:25;18.87;;;13.90;;
19679;SDS011;9989;48.962;9.182;2023-03-01T11:51:09;21.23;;;15.53;;
19679;SDS011;9989;48.962;9.182;2023-03-01T11:56:21;18.00;;;13.30;;
19679;SDS011;9989;48.962;9.182;2023-03-01T12:18:12;18.20;;;14.77;;
19679;SDS011;9989;48.962;9.182;2023-03-01T12:26:36;17.83;;;13.83;;
19679;SDS011;9989;48.962;9.182;2023-03-01T12:37:46;23.13;;;16.70;;
19679;SDS011;9989;48.962;9.182;2023-03-01T12:43:36;18.77;;;13.73;;
19679;SDS011;9989;48.962;9.182;2023-03-01T12:46:21;19.23;;;14.10;;
19679;SDS011;9989;48.962;9.182;2023-03-01T12:49:12;19.60;;;14.87;;
19679;SDS011;9989;48.962;9.182;2023-03-01T12:51:49;19.67;;;13.67;;
19679;SDS011;9989;48.962;9.182;2023-03-01T12:54:28;19.43;;;14.20;;
19679;SDS011;9989;48.962;9.182;2023-03-01T12:57:03;22.20;;;16.00;;
19679;SDS011;9989;48.962;9.182;2023-03-01T13:02:26;20.70;;;14.80;;
19679;SDS011;9989;48.962;9.182;2023-03-01T13:10:23;20.40;;;15.50;;
19679;SDS011;9989;48.962;9.182;2023-03-01T13:15:39;21.00;;;16.10;;
19679;SDS011;9989;48.962;9.182;2023-03-01T13:23:11;21.73;;;16.93;;
19679;SDS011;9989;48.962;9.182;2023-03-01T13:36:10;26.03;;;16.23;;
19679;SDS011;9989;48.962;9.182;2023-03-01T13:38:58;21.07;;;15.77;;
19679;SDS011;9989;48.962;9.182;2023-03-01T13:46:46;23.77;;;17.40;;
19679;SDS011;9989;48.962;9.182;2023-03-01T13:49:14;23.87;;;15.80;;
19679;SDS011;9989;48.962;9.182;2023-03-01T13:51:46;22.37;;;16.60;;
19679;SDS011;9989;48.962;9.182;2023-03-01T13:54:12;24.30;;;17.23;;
19679;SDS011;9989;48.962;9.182;2023-03-01T13:56:40;24.00;;;17.10;;
19679;SDS011;9989;48.962;9.182;2023-03-01T13:59:15;22.33;;;15.40;;
19679;SDS011;9989;48.962;9.182;2023-03-01T14:01:43;24.53;;;15.40;;
19679;SDS011;9989;48.962;9.182;2023-03-01T14:04:21;29.67;;;16.93;;
19679;SDS011;9989;48.962;9.182;2023-03-01T14:06:50;22.93;;;14.77;;
19679;SDS011;9989;48.962;9.182;2023-03-01T14:09:26;22.33;;;15.83;;
19679;SDS011;9989;48.962;9.182;2023-03-01T14:19:55;21.00;;;14.53;;
19679;SDS011;9989;48.962;9.182;2023-03-01T14:22:24;22.03;;;13.97;;
19679;SDS011;9989;48.962;9.182;2023-03-01T14:25:00;22.67;;;16.00;;
19679;SDS011;9989;48.962;9.182;2023-03-01T14:27:32;25.17;;;16.30;;
19679;SDS011;9989;48.962;9.182;2023-03-01T14:30:02;23.47;;;15.77;;
19679;SDS011;9989;48.962;9.182;2023-03-01T14:32:35;24.87;;;15.37;;
19679;SDS011;9989;48.962;9.182;2023-03-01T14:35:01;22.50;;;15.30;;
19679;SDS011;9989;48.962;9.182;2023-03-01T14:37:28;21.00;;;14.80;;
19679;SDS011;9989;48.962;9.182;2023-03-01T14:39:55;23.23;;;16.13;;
19679;SDS011;9989;48.962;9.182;2023-03-01T14:42:23;21.07;;;14.87;;
19679;SDS011;9989;48.962;9.182;2023-03-01T14:44:52;22.87;;;15.53;;
19679;SDS011;9989;48.962;9.182;2023-03-01T14:47:27;24.43;;;15.50;;
19679;SDS011;9989;48.962;9.182;2023-03-01T14:49:59;23.90;;;17.40;;
19679;SDS011;9989;48.962;9.182;2023-03-01T14:52:34;21.20;;;14.67;;
19679;SDS011;9989;48.962;9.182;2023-03-01T14:55:10;25.70;;;16.00;;
19679;SDS011;9989;48.962;9.182;2023-03-01T14:57:47;24.90;;;16.67;;
19679;SDS011;9989;48.962;9.182;2023-03-01T15:02:51;25.63;;;16.43;;
19679;SDS011;9989;48.962;9.182;2023-03-01T15:05:18;24.97;;;15.07;;
19679;SDS011;9989;48.962;9.182;2023-03-01T15:07:50;30.43;;;17.70;;
19679;SDS011;9989;48.962;9.182;2023-03-01T15:10:19;22.90;;;14.40;;
19679;SDS011;9989;48.962;9.182;2023-03-01T15:12:47;23.57;;;16.33;;
19679;SDS011;9989;48.962;9.182;2023-03-01T15:15:47;24.30;;;16.03;;
19679;SDS011;9989;48.962;9.182;2023-03-01T15:18:15;25.27;;;16.00;;
19679;SDS011;9989;48.962;9.182;2023-03-01T15:20:44;24.53;;;15.93;;
19679;SDS011;9989;48.962;9.182;2023-03-01T15:23:18;22.57;;;13.50;;
19679;SDS011;9989;48.962;9.182;2023-03-01T15:25:46;26.43;;;16.87;;
19679;SDS011;9989;48.962;9.182;2023-03-01T15:28:21;23.07;;;15.57;;
19679;SDS011;9989;48.962;9.182;2023-03-01T15:30:52;22.47;;;14.87;;
19679;SDS011;9989;48.962;9.182;2023-03-01T15:33:31;22.77;;;14.27;;
19679;SDS011;9989;48.962;9.182;2023-03-01T15:35:59;24.33;;;14.43;;
19679;SDS011;9989;48.962;9.182;2023-03-01T15:38:55;22.50;;;15.33;;
19679;SDS011;9989;48.962;9.182;2023-03-01T15:41:24;28.97;;;17.00;;
19679;SDS011;9989;48.962;9.182;2023-03-01T15:44:15;24.90;;;16.47;;
19679;SDS011;9989;48.962;9.182;2023-03-01T15:46:53;26.43;;;16.97;;
19679;SDS011;9989;48.962;9.182;2023-03-01T15:52:12;22.83;;;14.80;;
19679;SDS011;9989;48.962;9.182;2023-03-01T15:54:44;31.60;;;17.97;;
19679;SDS011;9989;48.962;9.182;2023-03-01T15:57:14;22.50;;;14.57;;
19679;SDS011;9989;48.962;9.182;2023-03-01T15:59:40;23.83;;;15.67;;
19679;SDS011;9989;48.962;9.182;2023-03-01T16:02:10;22.83;;;14.23;;
19679;SDS011;9989;48.962;9.182;2023-03-01T16:04:37;23.57;;;15.73;;
19679;SDS011;9989;48.962;9.182;2023-03-01T16:07:04;24.00;;;15.37;;
19679;SDS011;9989;48.962;9.182;2023-03-01T16:09:29;22.93;;;15.17;;
19679;SDS011;9989;48.962;9.182;2023-03-01T16:11:55;24.00;;;15.77;;
19679;SDS011;9989;48.962;9.182;2023-03-01T16:14:21;23.43;;;13.73;;
19679;SDS011;9989;48.962;9.182;2023-03-01T16:16:47;25.53;;;15.93;;
19679;SDS011;9989;48.962;9.182;2023-03-01T16:19:13;26.10;;;15.80;;
19679;SDS011;9989;48.962;9.182;2023-03-01T16:21:39;23.77;;;15.07;;
19679;SDS011;9989;48.962;9.182;2023-03-01T16:24:07;23.80;;;15.27;;
19679;SDS011;9989;48.962;9.182;2023-03-01T16:26:33;22.20;;;14.27;;
19679;SDS011;9989;48.962;9.182;2023-03-01T16:28:59;24.60;;;16.30;;
19679;SDS011;9989;48.962;9.182;2023-03-01T16:31:24;25.70;;;15.97;;
19679;SDS011;9989;48.962;9.182;2023-03-01T16:33:54;28.23;;;16.80;;
19679;SDS011;9989;48.962;9.182;2023-03-01T16:36:22;28.70;;;17.83;;
19679;SDS011;9989;48.962;9.182;2023-03-01T16:38:49;26.30;;;16.43;;
19679;SDS011;9989;48.962;9.182;2023-03-01T16:41:16;28.00;;;16.23;;
19679;SDS011;9989;48.962;9.182;2023-03-01T16:43:43;28.57;;;16.53;;
19679;SDS011;9989;48.962;9.182;2023-03-01T16:48:38;28.27;;;17.43;;
19679;SDS011;9989;48.962;9.182;2023-03-01T16:51:04;26.50;;;16.07;;
19679;SDS011;9989;48.962;9.182;2023-03-01T16:53:32;29.03;;;16.40;;
19679;SDS011;9989;48.962;9.182;2023-03-01T16:56:01;30.47;;;16.37;;
19679;SDS011;9989;48.962;9.182;2023-03-01T16:58:28;33.23;;;17.97;;
19679;SDS011;9989;48.962;9.182;2023-03-01T17:00:54;27.00;;;16.03;;
19679;SDS011;9989;48.962;9.182;2023-03-01T17:03:21;24.50;;;15.00;;
19679;SDS011;9989;48.962;9.182;2023-03-01T17:05:48;30.93;;;17.30;;
19679;SDS011;9989;48.962;9.182;2023-03-01T17:08:14;32.77;;;17.80;;
19679;SDS011;9989;48.962;9.182;2023-03-01T17:10:40;26.30;;;16.40;;
19679;SDS011;9989;48.962;9.182;2023-03-01T17:13:09;29.93;;;16.60;;